createdAt,value
2022-08-05T00:01:35.511Z,101174.09
2022-08-05T00:04:05.209Z,101162.69
2022-08-05T00:06:36.052Z,101169.50
2022-08-05T00:09:04.051Z,101162.94
2022-08-05T00:11:35.132Z,101172.38
2022-08-05T00:14:16.955Z,101179.25
2022-08-05T00:16:53.323Z,101181.53
2022-08-05T00:19:22.715Z,101172.28
2022-08-05T00:21:51.501Z,101187.72
2022-08-05T00:24:19.230Z,101190.41
2022-08-05T00:26:52.959Z,101191.63
2022-08-05T00:29:22.341Z,101208.88
2022-08-05T00:31:54.310Z,101197.69
2022-08-05T00:34:55.262Z,101191.00
2022-08-05T00:37:22.555Z,101191.16
2022-08-05T00:39:58.027Z,101196.53
2022-08-05T00:42:37.058Z,101210.13
2022-08-05T00:45:08.653Z,101200.13
2022-08-05T00:47:56.461Z,101211.28
2022-08-05T00:50:25.305Z,101218.75
2022-08-05T00:52:53.228Z,101227.25
2022-08-05T00:55:20.057Z,101234.81
2022-08-05T00:57:58.179Z,101243.66
2022-08-05T01:00:27.610Z,101245.13
2022-08-05T01:02:54.593Z,101241.03
2022-08-05T01:05:21.351Z,101238.00
2022-08-05T01:08:29.803Z,101256.75
2022-08-05T01:10:42.172Z,101233.50
2022-08-05T01:13:57.916Z,101236.19
2022-08-05T01:16:26.344Z,101240.47
2022-08-05T01:19:00.705Z,101244.09
2022-08-05T01:21:38.144Z,101231.59
2022-08-05T01:24:23.763Z,101220.13
2022-08-05T01:27:24.881Z,101220.69
2022-08-05T01:29:55.077Z,101217.53
2022-08-05T01:32:27.531Z,101229.88
2022-08-05T01:35:01.086Z,101216.44
2022-08-05T01:37:44.484Z,101199.47
2022-08-05T01:40:12.718Z,101186.41
2022-08-05T01:42:41.461Z,101178.44
2022-08-05T01:45:09.411Z,101189.03
2022-08-05T01:47:38.855Z,101178.81
2022-08-05T01:50:15.302Z,101185.56
2022-08-05T01:52:43.914Z,101155.41
2022-08-05T01:55:12.152Z,101141.25
2022-08-05T01:58:09.773Z,101132.56
2022-08-05T02:00:30.324Z,101124.72
2022-08-05T02:03:24.256Z,101112.44
2022-08-05T02:05:59.705Z,101100.75
2022-08-05T02:08:31.090Z,101099.63
2022-08-05T02:11:13.037Z,101092.72
2022-08-05T02:13:54.125Z,101096.56
2022-08-05T02:16:28.167Z,101089.00
2022-08-05T02:19:11.920Z,101089.25
2022-08-05T02:21:49.782Z,101096.22
2022-08-05T02:24:19.386Z,101102.03
2022-08-05T02:26:54.605Z,101089.09
2022-08-05T02:29:24.310Z,101092.19
2022-08-05T02:32:11.665Z,101095.28
2022-08-05T02:34:46.446Z,101078.38
2022-08-05T02:37:22.434Z,101073.84
2022-08-05T02:39:51.685Z,101069.53
2022-08-05T02:42:25.748Z,101074.00
2022-08-05T02:44:52.880Z,101081.44
2022-08-05T02:47:20.300Z,101081.31
2022-08-05T02:49:47.205Z,101103.91
2022-08-05T02:52:30.012Z,101092.91
2022-08-05T02:54:57.799Z,101049.22
2022-08-05T02:58:11.666Z,101029.97
2022-08-05T03:00:13.175Z,101039.25
2022-08-05T03:02:41.124Z,101034.47
2022-08-05T03:05:11.498Z,101016.66
2022-08-05T03:07:59.449Z,101040.34
2022-08-05T03:10:26.451Z,101042.91
2022-08-05T03:12:54.263Z,101052.91
2022-08-05T03:15:23.647Z,101065.53
2022-08-05T03:17:53.912Z,101077.97
2022-08-05T03:20:21.976Z,101099.97
2022-08-05T03:22:50.592Z,101139.78
2022-08-05T03:25:33.787Z,101168.03
2022-08-05T03:28:08.278Z,101180.28
2022-08-05T03:30:35.543Z,101216.91
2022-08-05T03:33:03.575Z,101221.91
2022-08-05T03:35:33.979Z,101218.34
2022-08-05T03:38:07.398Z,101205.91
2022-08-05T03:40:34.192Z,101193.84
2022-08-05T03:43:59.235Z,101171.47
2022-08-05T03:45:55.245Z,101169.81
2022-08-05T03:48:25.733Z,101151.00
2022-08-05T03:50:53.975Z,101166.06
2022-08-05T03:55:52.079Z,101158.50
2022-08-05T03:56:34.983Z,101153.22
2022-08-05T03:59:05.681Z,101156.19
2022-08-05T04:01:33.054Z,101145.13
2022-08-05T04:04:09.228Z,101128.81
2022-08-05T04:06:37.572Z,101125.81
2022-08-05T04:09:06.252Z,101129.28
2022-08-05T04:11:47.737Z,101135.44
2022-08-05T04:14:19.411Z,101136.06
2022-08-05T04:16:58.047Z,101128.72
2022-08-05T04:19:24.675Z,101124.81
2022-08-05T04:22:09.849Z,101128.72
2022-08-05T04:24:44.076Z,101136.66
2022-08-05T04:27:14.160Z,101138.84
2022-08-05T04:29:41.922Z,101145.75
2022-08-05T04:32:09.332Z,101146.16
2022-08-05T04:34:42.741Z,101157.72
2022-08-05T04:37:10.079Z,101158.59
2022-08-05T04:39:37.572Z,101162.50
2022-08-05T04:42:06.029Z,101148.81
2022-08-05T04:44:33.047Z,101138.72
2022-08-05T04:46:59.880Z,101146.25
2022-08-05T04:49:38.633Z,101161.38
2022-08-05T04:52:22.303Z,101159.56
2022-08-05T04:54:49.447Z,101148.69
2022-08-05T04:57:16.133Z,101153.31
2022-08-05T04:59:42.635Z,101155.19
2022-08-05T05:02:37.433Z,101161.63
2022-08-05T05:05:02.805Z,101181.09
2022-08-05T05:07:32.086Z,101188.16
2022-08-05T05:09:59.614Z,101193.31
2022-08-05T05:12:29.242Z,101202.28
2022-08-05T05:14:55.772Z,101193.34
2022-08-05T05:17:24.684Z,101189.94
2022-08-05T05:20:09.919Z,101207.13
2022-08-05T05:22:40.776Z,101213.28
2022-08-05T05:25:17.115Z,101222.66
2022-08-05T05:27:53.665Z,101210.72
2022-08-05T05:30:29.136Z,101200.78
2022-08-05T05:33:00.735Z,101200.63
2022-08-05T05:35:37.977Z,101201.84
2022-08-05T05:38:12.934Z,101204.69
2022-08-05T05:40:47.940Z,101210.97
2022-08-05T05:43:22.255Z,101195.44
2022-08-05T05:46:03.335Z,101192.19
2022-08-05T05:48:31.644Z,101192.81
2022-08-05T05:50:58.186Z,101204.31
2022-08-05T05:53:24.702Z,101205.63
2022-08-05T05:56:01.401Z,101223.41
2022-08-05T05:58:32.026Z,101217.69
2022-08-05T06:01:02.551Z,101202.22
2022-08-05T06:04:01.052Z,101210.88
2022-08-05T06:06:28.027Z,101209.94
2022-08-05T06:08:58.011Z,101200.25
2022-08-05T06:11:24.545Z,101212.63
2022-08-05T06:13:54.266Z,101216.44
2022-08-05T06:16:30.953Z,101199.44
2022-08-05T06:19:05.398Z,101195.47
2022-08-05T06:21:36.911Z,101192.38
2022-08-05T06:24:12.168Z,101192.78
2022-08-05T06:26:51.390Z,101188.84
2022-08-05T06:29:25.160Z,101204.47
2022-08-05T06:32:06.328Z,101220.03
2022-08-05T06:34:53.485Z,101212.81
2022-08-05T06:37:52.346Z,101208.91
2022-08-05T06:40:10.055Z,101211.44
2022-08-05T06:42:37.291Z,101216.00
2022-08-05T06:45:08.851Z,101217.78
2022-08-05T06:48:44.223Z,101219.56
2022-08-05T06:50:23.633Z,101232.41
2022-08-05T06:52:58.862Z,101244.03
2022-08-05T06:55:36.978Z,101236.38
2022-08-05T06:58:19.770Z,101234.44
2022-08-05T07:00:50.946Z,101247.84
2022-08-05T07:03:17.770Z,101237.59
2022-08-05T07:05:44.706Z,101248.19
2022-08-05T07:08:13.061Z,101244.97
2022-08-05T07:10:53.509Z,101239.81
2022-08-05T07:13:57.161Z,101251.75
2022-08-05T07:17:56.690Z,101250.44
2022-08-05T07:22:17.078Z,101252.97
2022-08-05T07:24:43.928Z,101247.69
2022-08-05T07:27:19.133Z,101233.00
2022-08-05T07:30:27.434Z,101240.34
2022-08-05T07:32:38.211Z,101239.53
2022-08-05T07:36:02.438Z,101246.13
2022-08-05T07:37:55.443Z,101245.22
2022-08-05T07:40:32.081Z,101243.28
2022-08-05T07:42:59.316Z,101252.78
2022-08-05T07:45:57.029Z,101250.69
2022-08-05T07:49:02.709Z,101243.34
2022-08-05T07:51:08.589Z,101241.28
2022-08-05T07:53:51.664Z,101255.63
2022-08-05T07:57:02.822Z,101256.16
2022-08-05T07:59:04.954Z,101248.25
2022-08-05T08:01:35.306Z,101254.75
2022-08-05T08:04:08.085Z,101249.13
2022-08-05T08:06:34.686Z,101256.91
2022-08-05T08:09:01.305Z,101257.84
2022-08-05T08:11:47.185Z,101249.59
2022-08-05T08:14:20.452Z,101258.25
2022-08-05T08:16:51.239Z,101264.09
2022-08-05T08:20:22.898Z,101261.69
2022-08-05T08:22:09.073Z,101256.88
2022-08-05T08:24:51.813Z,101244.44
2022-08-05T08:27:18.982Z,101237.50
2022-08-05T08:30:05.897Z,101239.63
2022-08-05T08:32:34.680Z,101236.78
2022-08-05T08:35:07.552Z,101231.34
2022-08-05T08:37:40.328Z,101219.56
2022-08-05T08:40:12.010Z,101232.47
2022-08-05T08:42:52.588Z,101235.75
2022-08-05T08:45:26.783Z,101241.72
2022-08-05T08:48:07.539Z,101239.22
2022-08-05T08:51:07.763Z,101240.13
2022-08-05T08:53:37.068Z,101245.16
2022-08-05T08:56:06.205Z,101250.88
2022-08-05T08:58:37.534Z,101252.72
2022-08-05T09:01:16.335Z,101261.22
2022-08-05T09:03:46.197Z,101266.44
2022-08-05T09:06:17.189Z,101255.75
2022-08-05T09:08:46.641Z,101252.72
2022-08-05T09:11:14.848Z,101257.78
2022-08-05T09:14:09.345Z,101255.63
2022-08-05T09:16:29.847Z,101251.41
2022-08-05T09:18:56.354Z,101247.22
2022-08-05T09:22:30.837Z,101254.84
2022-08-05T09:24:15.389Z,101250.72
2022-08-05T09:26:43.701Z,101254.00
2022-08-05T09:29:10.913Z,101258.50
2022-08-05T09:32:40.352Z,101249.91
2022-08-05T09:34:55.866Z,101248.25
2022-08-05T09:38:12.731Z,101247.16
2022-08-05T09:40:39.338Z,101244.41
2022-08-05T09:43:41.474Z,101241.84
2022-08-05T09:46:27.440Z,101238.63
2022-08-05T09:49:06.971Z,101244.78
2022-08-05T09:51:42.314Z,101260.06
2022-08-05T09:54:10.011Z,101277.22
2022-08-05T09:56:38.019Z,101280.22
2022-08-05T09:59:11.423Z,101281.88
2022-08-05T10:01:45.624Z,101284.25
2022-08-05T10:04:16.219Z,101286.97
2022-08-05T10:06:59.563Z,101289.44
2022-08-05T10:09:29.432Z,101283.41
2022-08-05T10:12:30.670Z,101281.66
2022-08-05T10:15:13.449Z,101285.59
2022-08-05T10:17:47.156Z,101290.22
2022-08-05T10:20:23.191Z,101284.56
2022-08-05T10:22:51.741Z,101289.63
2022-08-05T10:25:19.240Z,101289.56
2022-08-05T10:28:16.819Z,101283.47
2022-08-05T10:31:20.412Z,101272.00
2022-08-05T10:33:25.668Z,101282.00
2022-08-05T10:35:59.788Z,101282.59
2022-08-05T10:38:28.770Z,101285.91
2022-08-05T10:41:03.806Z,101304.38
2022-08-05T10:43:49.369Z,101308.16
2022-08-05T10:46:19.305Z,101302.00
2022-08-05T10:48:57.441Z,101310.88
2022-08-05T10:51:28.956Z,101314.44
2022-08-05T10:53:56.124Z,101312.91
2022-08-05T10:56:27.400Z,101306.59
2022-08-05T10:58:53.858Z,101302.63
2022-08-05T11:01:54.823Z,101315.09
2022-08-05T11:04:31.725Z,101315.28
2022-08-05T11:07:01.355Z,101309.03
2022-08-05T11:09:49.363Z,101310.00
2022-08-05T11:12:34.238Z,101294.91
2022-08-05T11:15:19.489Z,101303.13
2022-08-05T11:17:59.193Z,101299.44
2022-08-05T11:20:33.269Z,101309.94
2022-08-05T11:23:08.801Z,101315.63
2022-08-05T11:26:05.370Z,101317.13
2022-08-05T11:28:30.631Z,101315.44
2022-08-05T11:31:02.387Z,101325.38
2022-08-05T11:33:34.543Z,101341.69
2022-08-05T11:36:14.828Z,101356.31
2022-08-05T11:38:45.708Z,101344.47
2022-08-05T11:41:54.673Z,101346.09
2022-08-05T11:44:10.610Z,101335.78
2022-08-05T11:47:10.127Z,101330.44
2022-08-05T11:49:27.688Z,101341.72
2022-08-05T11:51:54.709Z,101354.97
2022-08-05T11:54:33.214Z,101356.72
2022-08-05T11:57:02.162Z,101361.66
2022-08-05T11:59:49.862Z,101374.72
2022-08-05T12:02:30.420Z,101375.50
2022-08-05T12:05:00.166Z,101375.44
2022-08-05T12:08:02.649Z,101374.69
2022-08-05T12:10:18.636Z,101390.03
2022-08-05T12:12:58.147Z,101388.78
2022-08-05T12:15:33.965Z,101389.41
2022-08-05T12:18:10.515Z,101385.75
2022-08-05T12:20:38.802Z,101385.13
2022-08-05T12:23:12.168Z,101392.97
2022-08-05T12:25:51.619Z,101391.66
2022-08-05T12:28:37.091Z,101381.75
2022-08-05T12:31:04.669Z,101374.81
2022-08-05T12:33:36.546Z,101377.88
2022-08-05T12:36:07.159Z,101380.25
2022-08-05T12:38:38.167Z,101384.84
2022-08-05T12:41:12.823Z,101386.41
2022-08-05T12:43:54.296Z,101388.16
2022-08-05T12:46:29.686Z,101379.38
2022-08-05T12:49:13.707Z,101380.59
2022-08-05T12:52:13.012Z,101381.06
2022-08-05T12:54:36.669Z,101378.31
2022-08-05T12:57:09.569Z,101375.84
2022-08-05T13:01:57.284Z,101375.59
2022-08-05T13:02:40.920Z,101368.19
2022-08-05T13:05:08.047Z,101361.84
2022-08-05T13:07:59.363Z,101365.31
2022-08-05T13:10:26.302Z,101374.22
2022-08-05T13:12:58.066Z,101372.59
2022-08-05T13:15:35.928Z,101380.81
2022-08-05T13:18:08.463Z,101384.88
2022-08-05T13:20:40.495Z,101389.22
2022-08-05T13:58:30.436Z,101376.19
2022-08-05T15:21:48.166Z,101385.63
2022-08-05T15:28:14.414Z,101386.78
2022-08-05T15:34:31.362Z,101390.72
2022-08-05T15:37:03.435Z,101389.88
2022-08-05T15:40:59.707Z,101392.03
2022-08-05T15:42:56.583Z,101404.22
2022-08-05T15:45:36.313Z,101403.28
2022-08-05T15:48:05.477Z,101401.50
2022-08-05T15:50:33.445Z,101406.47
2022-08-05T15:53:04.004Z,101402.13
2022-08-05T15:56:03.766Z,101412.28
2022-08-05T15:58:18.847Z,101402.19
2022-08-05T16:00:57.059Z,101412.34
2022-08-05T16:03:32.626Z,101418.69
2022-08-05T16:06:00.410Z,101413.25
2022-08-05T16:08:30.584Z,101408.50
2022-08-05T16:10:57.883Z,101404.75
2022-08-05T16:13:32.041Z,101414.47
2022-08-05T16:16:01.078Z,101420.31
2022-08-05T16:18:28.988Z,101419.66
2022-08-05T16:20:55.676Z,101432.03
2022-08-05T16:23:22.350Z,101438.19
2022-08-05T16:25:49.877Z,101436.97
2022-08-05T16:28:22.394Z,101433.16
2022-08-05T16:30:52.122Z,101445.34
2022-08-05T16:33:19.383Z,101445.59
2022-08-05T16:35:49.885Z,101445.38
2022-08-05T16:38:25.127Z,101443.72
2022-08-05T16:41:00.483Z,101439.31
2022-08-05T16:43:34.515Z,101442.53
2022-08-05T16:46:23.406Z,101449.06
2022-08-05T16:48:49.965Z,101447.16
2022-08-05T16:51:16.462Z,101466.00
2022-08-05T16:54:03.004Z,101473.13
2022-08-05T16:56:33.598Z,101467.25
2022-08-05T16:59:08.149Z,101476.28
2022-08-05T17:01:54.859Z,101469.31
2022-08-05T17:04:23.703Z,101468.41
2022-08-05T17:06:53.282Z,101467.84
2022-08-05T17:09:20.478Z,101477.56
2022-08-05T17:11:49.007Z,101479.88
2022-08-05T17:14:22.164Z,101481.69
2022-08-05T17:17:01.308Z,101482.56
2022-08-05T17:19:29.251Z,101482.03
2022-08-05T17:21:57.174Z,101495.88
2022-08-05T17:24:36.493Z,101503.53
2022-08-05T17:27:08.219Z,101510.50
2022-08-05T17:29:40.895Z,101511.78
2022-08-05T17:32:17.245Z,101541.94
2022-08-05T17:34:48.483Z,101545.50
2022-08-05T17:37:41.165Z,101540.31
2022-08-05T17:40:10.957Z,101555.50
2022-08-05T17:42:43.183Z,101556.41
2022-08-05T17:45:21.252Z,101572.19
2022-08-05T17:47:53.861Z,101570.28
2022-08-05T17:50:28.587Z,101568.59
2022-08-05T17:52:59.113Z,101577.09
2022-08-05T17:55:34.247Z,101580.78
2022-08-05T17:58:05.294Z,101584.31
2022-08-05T18:00:34.534Z,101583.41
2022-08-05T18:03:02.087Z,101599.44
2022-08-05T18:05:35.197Z,101601.19
2022-08-05T18:08:02.394Z,101605.66
2022-08-05T18:10:30.119Z,101618.84
2022-08-05T18:13:07.664Z,101620.63
2022-08-05T18:15:40.409Z,101613.53
2022-08-05T18:18:11.184Z,101621.25
2022-08-05T18:20:38.317Z,101623.69
2022-08-05T18:23:11.393Z,101623.06
2022-08-05T18:25:44.761Z,101639.81
2022-08-05T18:28:17.134Z,101638.16
2022-08-05T18:33:58.018Z,101648.41
2022-08-05T18:40:34.235Z,101659.19
2022-08-05T18:42:57.814Z,101658.41
2022-08-05T18:45:24.918Z,101667.16
2022-08-05T18:48:07.430Z,101671.53
2022-08-05T18:50:56.695Z,101679.47
2022-08-05T18:53:45.756Z,101673.28
2022-08-05T19:03:54.900Z,101679.47
2022-08-05T19:10:55.819Z,101696.16
2022-08-05T19:24:08.209Z,101711.94
2022-08-05T19:26:35.986Z,101718.09
2022-08-05T19:29:20.623Z,101725.13
2022-08-05T19:31:51.311Z,101733.94
2022-08-05T19:34:18.813Z,101730.41
2022-08-05T19:36:45.396Z,101736.53
2022-08-05T19:39:13.852Z,101733.06
2022-08-05T19:42:06.351Z,101735.66
2022-08-05T19:44:30.367Z,101746.22
2022-08-05T19:46:57.013Z,101747.97
2022-08-05T19:49:24.186Z,101753.22
2022-08-05T19:52:04.761Z,101748.75
2022-08-05T19:54:34.632Z,101750.59
2022-08-05T19:57:09.155Z,101758.47
2022-08-05T20:00:00.606Z,101757.63
2022-08-05T20:02:25.936Z,101759.34
2022-08-05T20:04:53.173Z,101762.00
2022-08-05T20:07:46.648Z,101771.72
2022-08-05T20:10:13.851Z,101776.03
2022-08-05T20:12:46.109Z,101769.06
2022-08-05T20:15:48.589Z,101776.03
2022-08-05T20:18:10.017Z,101772.53
2022-08-05T20:20:47.027Z,101781.31
2022-08-05T20:23:13.857Z,101776.81
2022-08-05T20:25:41.716Z,101776.88
2022-08-05T20:28:13.674Z,101776.03
2022-08-05T20:30:41.241Z,101789.13
2022-08-05T20:33:08.740Z,101795.28
2022-08-05T20:35:40.632Z,101788.22
2022-08-05T20:38:20.175Z,101786.53
2022-08-05T20:40:53.929Z,101788.28
2022-08-05T20:43:57.507Z,101791.75
2022-08-05T20:46:10.211Z,101796.16
2022-08-05T20:48:39.349Z,101804.09
2022-08-05T20:51:08.772Z,101803.13
2022-08-05T20:53:36.531Z,101800.44
2022-08-05T20:56:08.245Z,101810.94
2022-08-05T20:58:35.796Z,101811.06
2022-08-05T21:01:03.580Z,101811.94
2022-08-05T21:03:34.174Z,101815.47
2022-08-05T21:06:01.789Z,101822.41
2022-08-05T21:08:42.121Z,101818.06
2022-08-05T21:11:12.400Z,101818.88
2022-08-05T21:13:47.820Z,101819.69
2022-08-05T21:16:29.679Z,101826.78
2022-08-05T21:19:00.356Z,101822.28
2022-08-05T21:21:44.617Z,101831.09
2022-08-05T21:24:16.487Z,101821.41
2022-08-05T21:26:53.597Z,101824.94
2022-08-05T21:29:26.182Z,101844.19
2022-08-05T21:31:53.563Z,101845.75
2022-08-05T21:34:20.473Z,101840.44
2022-08-05T21:36:49.103Z,101835.41
2022-08-05T21:39:16.994Z,101844.09
2022-08-05T21:42:01.310Z,101843.22
2022-08-05T21:44:29.846Z,101849.28
2022-08-05T21:46:58.337Z,101855.34
2022-08-05T21:49:58.653Z,101852.69
2022-08-05T21:52:21.786Z,101854.41
2022-08-05T21:54:55.328Z,101847.47
2022-08-05T21:57:31.365Z,101846.69
2022-08-05T22:00:11.173Z,101854.56
2022-08-05T22:02:38.488Z,101853.44
2022-08-05T22:05:09.067Z,101849.09
2022-08-05T22:07:39.303Z,101861.06
2022-08-05T22:10:26.888Z,101858.66
2022-08-05T22:12:54.405Z,101855.00
2022-08-05T22:15:56.498Z,101859.47
2022-08-05T22:18:11.843Z,101860.31
2022-08-05T22:20:38.940Z,101859.56
2022-08-05T22:23:25.450Z,101865.50
2022-08-05T22:26:30.585Z,101870.03
2022-08-05T22:28:57.141Z,101859.63
2022-08-05T22:31:25.104Z,101859.47
2022-08-05T22:34:01.314Z,101864.63
2022-08-05T22:36:28.924Z,101867.31
2022-08-05T22:38:56.100Z,101875.13
2022-08-05T22:41:26.417Z,101875.16
2022-08-05T22:44:11.845Z,101880.38
2022-08-05T22:46:40.535Z,101885.53
2022-08-05T22:49:23.149Z,101888.00
2022-08-05T22:52:06.527Z,101888.91
2022-08-05T22:54:35.407Z,101897.59
2022-08-05T22:57:03.388Z,101892.19
2022-08-05T22:59:42.950Z,101895.09
2022-08-05T23:02:13.775Z,101902.00
2022-08-05T23:04:52.139Z,101902.94
2022-08-05T23:07:19.597Z,101907.22
2022-08-05T23:09:58.070Z,101908.06
2022-08-05T23:12:32.634Z,101915.66
2022-08-05T23:15:03.052Z,101912.44
2022-08-05T23:17:34.712Z,101911.47
2022-08-05T23:20:06.528Z,101908.75
2022-08-05T23:22:43.706Z,101919.16
2022-08-05T23:25:17.700Z,101915.81
2022-08-05T23:28:01.360Z,101916.50
2022-08-05T23:30:29.219Z,101917.72
2022-08-05T23:32:57.750Z,101921.00
2022-08-05T23:35:25.524Z,101922.78
2022-08-05T23:37:55.530Z,101924.50
2022-08-05T23:40:27.190Z,101928.88
2022-08-05T23:42:54.011Z,101935.59
2022-08-05T23:45:20.629Z,101936.59
2022-08-05T23:47:53.920Z,101937.34
2022-08-05T23:50:26.556Z,101935.47
2022-08-05T23:52:54.630Z,101935.75
2022-08-05T23:55:22.449Z,101943.69
2022-08-05T23:57:52.910Z,101941.78
